createdAt,value
2022-12-12T00:02:24.719Z,3.37
2022-12-12T00:04:58.072Z,3.70
2022-12-12T00:07:27.317Z,3.93
2022-12-12T00:09:57.208Z,4.37
2022-12-12T00:12:26.457Z,3.87
2022-12-12T00:14:55.605Z,3.83
2022-12-12T00:17:24.953Z,3.53
2022-12-12T00:19:55.863Z,3.50
2022-12-12T00:22:25.101Z,3.17
2022-12-12T00:24:54.312Z,3.57
2022-12-12T00:27:23.643Z,3.73
2022-12-12T00:29:54.335Z,4.03
2022-12-12T00:32:23.883Z,4.10
2022-12-12T00:34:53.312Z,3.20
2022-12-12T00:37:23.940Z,3.17
2022-12-12T00:39:53.330Z,3.80
2022-12-12T00:42:22.444Z,3.77
2022-12-12T00:44:51.975Z,3.30
2022-12-12T00:47:21.151Z,4.70
2022-12-12T00:49:50.451Z,4.00
2022-12-12T00:52:19.571Z,4.07
2022-12-12T00:54:50.236Z,3.60
2022-12-12T00:57:20.466Z,3.50
2022-12-12T00:59:49.913Z,4.33
2022-12-12T01:02:23.501Z,3.93
2022-12-12T01:04:55.797Z,3.67
2022-12-12T01:07:25.064Z,3.70
2022-12-12T01:09:56.031Z,3.70
2022-12-12T01:12:25.621Z,4.00
2022-12-12T01:14:54.971Z,5.00
2022-12-12T01:17:24.217Z,4.20
2022-12-12T01:19:53.774Z,5.00
2022-12-12T01:22:23.591Z,4.93
2022-12-12T01:24:57.061Z,4.60
2022-12-12T01:27:27.886Z,5.37
2022-12-12T01:30:01.872Z,4.87
2022-12-12T01:32:31.498Z,5.73
2022-12-12T01:35:00.848Z,5.10
2022-12-12T01:37:30.154Z,6.10
2022-12-12T01:39:59.266Z,5.27
2022-12-12T01:42:31.022Z,5.10
2022-12-12T01:45:00.461Z,4.10
2022-12-12T01:47:29.973Z,5.03
2022-12-12T01:50:01.824Z,4.00
2022-12-12T01:52:33.028Z,5.10
2022-12-12T01:55:04.803Z,5.03
2022-12-12T01:57:37.090Z,5.40
2022-12-12T02:00:08.603Z,5.80
2022-12-12T02:02:37.915Z,5.27
2022-12-12T02:05:09.804Z,5.60
2022-12-12T02:07:39.197Z,5.30
2022-12-12T02:10:08.978Z,5.70
2022-12-12T02:12:39.651Z,5.70
2022-12-12T02:15:09.316Z,7.43
2022-12-12T02:17:45.490Z,5.27
2022-12-12T02:20:27.322Z,6.40
2022-12-12T02:23:11.614Z,6.63
2022-12-12T02:26:09.840Z,5.50
2022-12-12T02:28:53.063Z,5.50
2022-12-12T02:31:24.909Z,5.50
2022-12-12T02:33:57.971Z,6.17
2022-12-12T02:36:31.099Z,6.17
2022-12-12T02:39:05.803Z,6.00
2022-12-12T02:41:38.165Z,4.97
2022-12-12T02:44:13.300Z,5.87
2022-12-12T02:46:48.443Z,5.97
2022-12-12T02:49:20.234Z,5.90
2022-12-12T02:51:50.623Z,6.03
2022-12-12T02:54:21.899Z,6.07
2022-12-12T02:56:53.398Z,6.00
2022-12-12T02:59:28.180Z,5.97
2022-12-12T03:02:28.113Z,5.50
2022-12-12T03:05:22.443Z,5.83
2022-12-12T03:07:58.247Z,5.70
2022-12-12T03:10:33.449Z,6.23
2022-12-12T03:13:06.260Z,6.63
2022-12-12T03:15:39.688Z,6.63
2022-12-12T03:18:17.666Z,6.00
2022-12-12T03:20:49.988Z,6.90
2022-12-12T03:23:20.609Z,6.60
2022-12-12T03:25:53.867Z,6.60
2022-12-12T03:28:25.373Z,7.37
2022-12-12T03:30:57.839Z,6.87
2022-12-12T03:33:31.448Z,6.63
2022-12-12T03:36:03.267Z,6.50
2022-12-12T03:38:34.849Z,7.00
2022-12-12T03:41:06.608Z,6.37
2022-12-12T03:43:37.932Z,6.00
2022-12-12T03:46:09.942Z,5.40
2022-12-12T03:48:43.181Z,5.40
2022-12-12T03:51:14.226Z,6.10
2022-12-12T03:53:45.985Z,5.90
2022-12-12T03:56:19.924Z,6.50
2022-12-12T03:58:51.515Z,5.63
2022-12-12T04:01:22.482Z,5.43
2022-12-12T04:03:57.895Z,4.53
2022-12-12T04:06:30.453Z,5.30
2022-12-12T04:09:18.738Z,5.20
2022-12-12T04:12:14.572Z,4.63
2022-12-12T04:14:52.126Z,5.60
2022-12-12T04:17:24.860Z,4.80
2022-12-12T04:20:14.663Z,4.60
2022-12-12T04:23:04.959Z,5.20
2022-12-12T04:25:58.954Z,4.97
2022-12-12T04:28:30.571Z,5.00
2022-12-12T04:31:02.758Z,4.67
2022-12-12T04:33:37.255Z,5.40
2022-12-12T04:36:09.941Z,5.10
2022-12-12T04:38:40.029Z,5.67
2022-12-12T04:41:12.621Z,5.67
2022-12-12T04:43:43.358Z,5.33
2022-12-12T04:46:14.620Z,5.03
2022-12-12T04:48:49.784Z,4.90
2022-12-12T04:51:25.534Z,5.20
2022-12-12T04:53:56.865Z,5.40
2022-12-12T04:56:28.332Z,4.90
2022-12-12T04:58:57.976Z,5.10
2022-12-12T05:01:31.399Z,5.40
2022-12-12T05:04:03.212Z,5.70
2022-12-12T05:06:35.773Z,4.77
2022-12-12T05:09:05.783Z,5.10
2022-12-12T05:11:35.628Z,5.00
2022-12-12T05:14:04.771Z,5.40
2022-12-12T05:16:35.129Z,4.90
2022-12-12T05:19:05.503Z,5.20
2022-12-12T05:21:36.169Z,4.23
2022-12-12T05:24:05.642Z,4.93
2022-12-12T05:26:35.542Z,4.10
2022-12-12T05:29:07.491Z,4.70
2022-12-12T05:31:36.957Z,3.93
2022-12-12T05:34:06.257Z,4.60
2022-12-12T05:36:36.854Z,4.13
2022-12-12T05:39:06.122Z,4.50
2022-12-12T05:41:35.455Z,4.67
2022-12-12T05:44:04.776Z,4.63
2022-12-12T05:46:34.123Z,3.90
2022-12-12T05:49:03.325Z,4.10
2022-12-12T05:51:32.622Z,4.00
2022-12-12T05:54:04.235Z,4.10
2022-12-12T05:56:33.702Z,4.10
2022-12-12T05:59:02.874Z,3.70
2022-12-12T06:01:32.098Z,3.90
2022-12-12T06:04:01.599Z,3.70
2022-12-12T06:06:31.088Z,3.20
2022-12-12T06:09:00.319Z,3.80
2022-12-12T06:11:31.253Z,3.37
2022-12-12T06:14:00.550Z,3.73
2022-12-12T06:16:29.827Z,3.80
2022-12-12T06:18:59.187Z,3.53
2022-12-12T06:21:28.440Z,3.37
2022-12-12T06:23:57.827Z,3.47
2022-12-12T06:26:27.131Z,3.63
2022-12-12T06:28:58.670Z,3.90
2022-12-12T06:31:28.321Z,3.47
2022-12-12T06:33:57.548Z,4.00
2022-12-12T06:36:27.109Z,3.97
2022-12-12T06:38:57.716Z,3.67
2022-12-12T06:41:27.685Z,5.60
2022-12-12T06:43:58.379Z,4.23
2022-12-12T06:46:28.437Z,4.23
2022-12-12T06:48:58.389Z,4.47
2022-12-12T06:51:29.260Z,5.60
2022-12-12T06:53:58.551Z,4.87
2022-12-12T06:56:28.652Z,4.67
2022-12-12T06:59:01.432Z,4.67
2022-12-12T07:01:30.775Z,4.80
2022-12-12T07:04:00.159Z,5.23
2022-12-12T07:06:29.423Z,5.30
2022-12-12T07:08:59.700Z,5.27
2022-12-12T07:11:29.289Z,5.63
2022-12-12T07:14:00.207Z,4.97
2022-12-12T07:16:29.662Z,4.73
2022-12-12T07:18:58.771Z,4.40
2022-12-12T07:21:28.201Z,5.70
2022-12-12T07:23:58.319Z,5.07
2022-12-12T07:26:27.743Z,4.07
2022-12-12T07:28:56.931Z,5.53
2022-12-12T07:31:29.189Z,5.50
2022-12-12T07:33:58.581Z,4.03
2022-12-12T07:36:27.777Z,5.30
2022-12-12T07:38:57.132Z,5.80
2022-12-12T07:41:26.654Z,6.10
2022-12-12T07:43:56.100Z,5.30
2022-12-12T07:46:26.749Z,6.73
2022-12-12T07:48:57.568Z,5.30
2022-12-12T07:51:27.080Z,5.87
2022-12-12T07:53:56.217Z,5.20
2022-12-12T07:56:25.805Z,5.70
2022-12-12T07:58:55.676Z,5.03
2022-12-12T08:01:26.073Z,4.80
2022-12-12T08:03:55.837Z,5.47
2022-12-12T08:06:26.539Z,5.30
2022-12-12T08:08:55.810Z,5.20
2022-12-12T08:11:26.144Z,6.23
2022-12-12T08:13:55.705Z,5.67
2022-12-12T08:16:26.641Z,5.87
2022-12-12T08:18:56.981Z,5.20
2022-12-12T08:21:28.361Z,5.90
2022-12-12T08:23:58.433Z,3.33
2022-12-12T08:26:28.851Z,5.03
2022-12-12T08:28:58.706Z,5.27
2022-12-12T08:31:28.239Z,5.27
2022-12-12T08:33:57.718Z,5.57
2022-12-12T08:36:30.460Z,4.80
2022-12-12T08:38:59.930Z,5.80
2022-12-12T08:41:29.202Z,4.37
2022-12-12T08:43:58.431Z,7.77
2022-12-12T08:46:27.901Z,5.00
2022-12-12T08:48:57.312Z,4.13
2022-12-12T08:51:26.598Z,5.90
2022-12-12T08:53:57.422Z,4.30
2022-12-12T08:56:26.897Z,5.20
2022-12-12T08:58:56.100Z,4.80
2022-12-12T09:01:26.231Z,4.80
2022-12-12T09:03:56.075Z,4.40
2022-12-12T09:06:26.115Z,6.80
2022-12-12T09:08:55.803Z,5.10
2022-12-12T09:11:27.029Z,4.93
2022-12-12T09:13:57.690Z,4.17
2022-12-12T09:16:30.143Z,4.70
2022-12-12T09:18:59.928Z,4.30
2022-12-12T09:21:29.225Z,4.40
2022-12-12T09:23:58.761Z,4.13
2022-12-12T09:26:29.494Z,4.17
2022-12-12T09:28:58.848Z,4.40
2022-12-12T09:31:28.164Z,4.70
2022-12-12T09:33:57.382Z,4.43
2022-12-12T09:36:26.717Z,5.07
2022-12-12T09:38:56.041Z,6.80
2022-12-12T09:41:27.423Z,4.57
2022-12-12T09:43:59.842Z,4.80
2022-12-12T09:46:34.604Z,4.53
2022-12-12T09:49:06.982Z,5.33
2022-12-12T09:51:37.197Z,5.07
2022-12-12T09:54:06.675Z,5.90
2022-12-12T09:56:39.565Z,5.23
2022-12-12T09:59:13.762Z,4.43
2022-12-12T10:01:52.114Z,5.80
2022-12-12T10:04:25.212Z,4.90
2022-12-12T10:06:57.480Z,5.90
2022-12-12T10:09:38.532Z,6.47
2022-12-12T10:12:09.913Z,5.43
2022-12-12T10:14:43.083Z,4.63
2022-12-12T10:17:14.625Z,4.70
2022-12-12T10:19:47.206Z,5.10
2022-12-12T10:22:24.067Z,5.00
2022-12-12T10:24:55.627Z,4.93
2022-12-12T10:27:25.763Z,5.03
2022-12-12T10:29:56.566Z,4.93
2022-12-12T10:32:33.608Z,5.30
2022-12-12T10:35:17.869Z,4.50
2022-12-12T10:37:56.487Z,4.90
2022-12-12T10:40:36.385Z,4.10
2022-12-12T10:43:08.556Z,4.70
2022-12-12T10:45:47.211Z,4.83
2022-12-12T10:48:16.594Z,5.03
2022-12-12T10:50:48.446Z,5.30
2022-12-12T10:53:18.043Z,4.77
2022-12-12T10:55:50.148Z,4.47
2022-12-12T10:58:19.717Z,4.33
2022-12-12T11:00:51.663Z,5.63
2022-12-12T11:03:47.922Z,4.83
2022-12-12T11:06:20.487Z,6.33
2022-12-12T11:08:57.204Z,5.37
2022-12-12T11:11:27.271Z,4.70
2022-12-12T11:13:57.954Z,4.43
2022-12-12T11:16:29.966Z,5.20
2022-12-12T11:19:00.639Z,4.27
2022-12-12T11:21:30.234Z,4.30
2022-12-12T11:24:00.258Z,4.47
2022-12-12T11:26:30.659Z,3.97
2022-12-12T11:29:02.241Z,4.30
2022-12-12T11:31:34.608Z,4.00
2022-12-12T11:34:04.764Z,4.20
2022-12-12T11:36:35.730Z,4.30
2022-12-12T11:39:14.906Z,5.23
2022-12-12T11:41:58.917Z,4.50
2022-12-12T11:44:29.252Z,4.30
2022-12-12T11:47:17.237Z,4.10
2022-12-12T11:49:48.496Z,4.37
2022-12-12T11:52:21.617Z,3.50
2022-12-12T11:54:52.845Z,4.40
2022-12-12T11:57:29.310Z,3.40
2022-12-12T12:00:07.419Z,5.60
2022-12-12T12:03:01.132Z,4.17
2022-12-12T12:05:34.425Z,3.73
2022-12-12T12:08:07.862Z,4.60
2022-12-12T12:10:47.325Z,4.07
2022-12-12T12:13:22.470Z,4.37
2022-12-12T12:15:56.654Z,5.33
2022-12-12T12:18:43.894Z,4.70
2022-12-12T12:21:25.879Z,4.97
2022-12-12T12:24:00.958Z,4.90
2022-12-12T12:26:34.319Z,5.00
2022-12-12T12:29:20.970Z,5.10
2022-12-12T12:31:56.301Z,5.70
2022-12-12T12:34:30.457Z,5.30
2022-12-12T12:37:10.061Z,5.70
2022-12-12T12:39:52.408Z,5.70
2022-12-12T12:42:26.284Z,5.57
2022-12-12T12:44:59.259Z,5.53
2022-12-12T12:47:32.460Z,6.37
2022-12-12T12:50:04.451Z,5.77
2022-12-12T12:52:36.756Z,6.13
2022-12-12T12:55:06.763Z,6.00
2022-12-12T12:57:37.318Z,6.77
2022-12-12T13:00:10.150Z,7.00
2022-12-12T13:02:43.412Z,5.90
2022-12-12T13:05:14.787Z,5.80
2022-12-12T13:07:49.845Z,7.03
2022-12-12T13:10:22.798Z,6.87
2022-12-12T13:12:56.460Z,8.23
2022-12-12T13:15:28.234Z,7.97
2022-12-12T13:18:02.060Z,8.03
2022-12-12T13:20:33.133Z,6.60
2022-12-12T13:23:10.326Z,6.03
2022-12-12T13:25:41.137Z,7.20
2022-12-12T13:28:15.459Z,7.20
2022-12-12T13:30:55.331Z,7.40
2022-12-12T13:33:30.872Z,7.20
2022-12-12T13:36:03.414Z,7.30
2022-12-12T13:38:36.038Z,14.93
2022-12-12T13:41:06.583Z,9.67
2022-12-12T13:43:43.721Z,7.67
2022-12-12T13:46:30.828Z,8.37
2022-12-12T13:49:02.482Z,7.63
2022-12-12T13:51:38.881Z,7.93
2022-12-12T13:54:26.983Z,8.07
2022-12-12T13:57:12.479Z,7.97
2022-12-12T13:59:56.504Z,7.27
2022-12-12T14:02:30.106Z,7.03
2022-12-12T14:05:10.644Z,16.03
2022-12-12T14:07:40.195Z,8.90
2022-12-12T14:10:25.827Z,8.83
2022-12-12T14:12:57.441Z,7.10
2022-12-12T14:15:30.380Z,7.30
2022-12-12T14:18:02.125Z,8.83
2022-12-12T14:20:33.924Z,8.90
2022-12-12T14:23:11.333Z,9.83
2022-12-12T14:25:41.743Z,7.80
2022-12-12T14:28:20.319Z,9.97
2022-12-12T14:30:51.280Z,12.47
2022-12-12T14:33:38.403Z,9.33
2022-12-12T14:36:10.941Z,10.87
2022-12-12T14:38:43.678Z,10.57
2022-12-12T14:41:15.666Z,10.10
2022-12-12T14:43:48.914Z,10.57
2022-12-12T14:46:42.876Z,11.50
2022-12-12T14:49:15.288Z,10.60
2022-12-12T14:51:45.707Z,13.37
2022-12-12T14:54:17.356Z,9.80
2022-12-12T14:56:52.404Z,9.40
2022-12-12T14:59:25.185Z,10.13
2022-12-12T15:01:55.781Z,10.00
2022-12-12T15:04:27.048Z,9.83
2022-12-12T15:06:56.947Z,9.27
2022-12-12T15:09:27.592Z,10.17
2022-12-12T15:11:57.633Z,12.13
2022-12-12T15:14:28.875Z,10.23
2022-12-12T15:17:02.469Z,11.10
2022-12-12T15:19:33.549Z,10.70
2022-12-12T15:22:03.108Z,11.17
2022-12-12T15:24:38.834Z,10.07
2022-12-12T15:27:08.571Z,9.97
2022-12-12T15:29:40.153Z,10.13
2022-12-12T15:32:11.080Z,10.57
2022-12-12T15:34:41.384Z,9.83
2022-12-12T15:37:27.011Z,10.20
2022-12-12T15:40:04.503Z,10.80
2022-12-12T15:42:34.257Z,10.87
2022-12-12T15:45:04.904Z,11.40
2022-12-12T15:47:34.601Z,10.47
2022-12-12T15:50:08.014Z,9.70
2022-12-12T15:52:37.412Z,9.87
2022-12-12T15:55:06.854Z,10.20
2022-12-12T15:57:47.112Z,9.80
2022-12-12T16:00:32.098Z,7.73
2022-12-12T16:03:02.647Z,9.33
2022-12-12T16:05:33.108Z,9.87
2022-12-12T16:08:21.231Z,9.73
2022-12-12T16:10:53.863Z,11.13
2022-12-12T16:13:27.075Z,10.20
2022-12-12T16:15:57.915Z,6.67
2022-12-12T16:18:28.035Z,8.77
2022-12-12T16:20:58.169Z,10.30
2022-12-12T16:23:30.204Z,9.73
2022-12-12T16:26:00.554Z,10.40
2022-12-12T16:28:30.792Z,9.00
2022-12-12T16:31:02.759Z,9.83
2022-12-12T16:33:34.599Z,10.47
2022-12-12T16:36:04.718Z,9.90
2022-12-12T16:38:34.234Z,10.60
2022-12-12T16:41:05.253Z,10.23
2022-12-12T16:43:36.386Z,10.57
2022-12-12T16:46:07.311Z,10.30
2022-12-12T16:48:38.119Z,9.77
2022-12-12T16:51:08.099Z,10.67
2022-12-12T16:53:37.936Z,11.87
2022-12-12T16:56:07.519Z,11.17
2022-12-12T16:58:36.728Z,10.80
2022-12-12T17:01:07.882Z,9.87
2022-12-12T17:03:37.076Z,9.47
2022-12-12T17:06:06.576Z,11.37
2022-12-12T17:08:36.011Z,7.17
2022-12-12T17:11:10.554Z,9.53
2022-12-12T17:13:41.721Z,9.50
2022-12-12T17:16:12.359Z,9.57
2022-12-12T17:18:42.149Z,8.97
2022-12-12T17:21:11.773Z,6.50
2022-12-12T17:23:42.172Z,8.23
2022-12-12T17:26:11.843Z,7.30
2022-12-12T17:28:41.731Z,9.40
2022-12-12T17:31:12.572Z,8.37
2022-12-12T17:33:49.866Z,9.00
2022-12-12T17:36:20.220Z,8.93
2022-12-12T17:38:49.916Z,8.60
2022-12-12T17:41:19.667Z,9.20
2022-12-12T17:43:55.067Z,9.83
2022-12-12T17:46:28.806Z,8.93
2022-12-12T17:48:59.641Z,6.73
2022-12-12T17:51:29.605Z,8.40
2022-12-12T17:54:00.299Z,7.07
2022-12-12T17:56:29.621Z,7.83
2022-12-12T17:58:58.855Z,6.40
2022-12-12T18:01:31.759Z,7.23
2022-12-12T18:04:01.657Z,7.60
2022-12-12T18:06:31.919Z,6.23
2022-12-12T18:09:01.698Z,6.17
2022-12-12T18:11:31.752Z,5.03
2022-12-12T18:14:04.660Z,5.10
2022-12-12T18:16:36.264Z,4.90
2022-12-12T18:19:06.197Z,3.80
2022-12-12T18:22:00.466Z,6.87
2022-12-12T18:24:29.442Z,5.60
2022-12-12T18:26:59.387Z,5.83
2022-12-12T18:29:29.538Z,5.67
2022-12-12T18:32:00.296Z,4.10
2022-12-12T18:34:29.669Z,5.90
2022-12-12T18:36:58.867Z,5.73
2022-12-12T18:39:28.475Z,5.20
2022-12-12T18:41:57.784Z,5.80
2022-12-12T18:44:27.116Z,7.10
2022-12-12T18:46:56.517Z,5.70
2022-12-12T18:49:27.223Z,5.53
2022-12-12T18:51:56.488Z,5.40
2022-12-12T18:54:25.707Z,5.40
2022-12-12T18:56:55.080Z,5.93
2022-12-12T18:59:24.431Z,5.53
2022-12-12T19:01:53.753Z,5.20
2022-12-12T19:04:23.841Z,5.90
2022-12-12T19:06:55.408Z,5.13
2022-12-12T19:09:24.602Z,4.03
2022-12-12T19:12:01.614Z,4.30
2022-12-12T19:17:25.812Z,5.00
2022-12-12T19:19:55.806Z,5.03
2022-12-12T19:25:17.740Z,5.47
2022-12-12T19:27:47.420Z,5.13
2022-12-12T19:30:17.271Z,3.90
2022-12-12T19:32:49.171Z,4.70
2022-12-12T19:35:18.774Z,5.50
2022-12-12T19:37:49.571Z,6.70
2022-12-12T19:40:19.134Z,6.60
2022-12-12T19:42:48.289Z,6.50
2022-12-12T19:45:17.708Z,5.80
2022-12-12T19:47:46.959Z,6.70
2022-12-12T19:50:16.636Z,5.70
2022-12-12T19:52:46.192Z,5.80
2022-12-12T19:55:18.418Z,6.63
2022-12-12T19:57:47.912Z,4.80
2022-12-12T20:00:20.116Z,5.60
2022-12-12T20:02:49.500Z,5.23
2022-12-12T20:05:19.716Z,5.60
2022-12-12T20:07:49.045Z,6.43
2022-12-12T20:10:19.756Z,5.00
2022-12-12T20:12:56.343Z,5.57
2022-12-12T20:15:27.915Z,8.00
2022-12-12T20:18:00.337Z,8.10
2022-12-12T20:20:29.863Z,9.60
2022-12-12T20:22:59.030Z,11.60
2022-12-12T20:25:29.799Z,9.77
2022-12-12T20:27:59.206Z,9.23
2022-12-12T20:30:28.861Z,10.20
2022-12-12T20:32:58.014Z,9.77
2022-12-12T20:35:27.267Z,10.73
2022-12-12T20:37:56.497Z,10.40
2022-12-12T20:40:26.172Z,12.07
2022-12-12T20:43:03.026Z,12.03
2022-12-12T20:45:33.022Z,11.83
2022-12-12T20:48:07.365Z,13.30
2022-12-12T20:50:37.181Z,12.30
2022-12-12T20:53:06.301Z,11.60
2022-12-12T20:55:36.772Z,10.53
2022-12-12T20:58:07.437Z,12.03
2022-12-12T21:00:36.951Z,12.60
2022-12-12T21:03:06.473Z,13.87
2022-12-12T21:05:35.724Z,14.40
2022-12-12T21:08:05.052Z,13.80
2022-12-12T21:10:34.455Z,13.03
2022-12-12T21:13:03.652Z,13.00
2022-12-12T21:15:34.306Z,12.80
2022-12-12T21:18:03.645Z,13.37
2022-12-12T21:20:33.003Z,13.63
2022-12-12T21:23:02.180Z,13.50
2022-12-12T21:25:31.506Z,14.00
2022-12-12T21:28:00.889Z,14.17
2022-12-12T21:30:30.336Z,12.80
2022-12-12T21:33:00.953Z,13.53
2022-12-12T21:35:30.276Z,13.23
2022-12-12T21:37:59.410Z,12.73
2022-12-12T21:40:28.727Z,15.23
2022-12-12T21:42:57.932Z,15.47
2022-12-12T21:45:27.298Z,15.17
2022-12-12T21:47:56.428Z,14.57
2022-12-12T21:50:30.712Z,15.40
2022-12-12T21:53:17.976Z,10.20
2022-12-12T21:55:47.507Z,6.63
2022-12-12T21:58:16.748Z,5.20
2022-12-12T22:00:47.096Z,2.90
2022-12-12T22:03:41.677Z,2.67
2022-12-12T22:06:13.951Z,2.30
2022-12-12T22:08:43.573Z,2.20
2022-12-12T22:11:13.146Z,2.50
2022-12-12T22:13:42.684Z,1.97
2022-12-12T22:16:15.453Z,1.90
2022-12-12T22:18:44.696Z,2.23
2022-12-12T22:21:16.606Z,2.07
2022-12-12T22:23:45.958Z,2.33
2022-12-12T22:26:16.109Z,2.10
2022-12-12T22:28:46.042Z,2.20
2022-12-12T22:31:15.551Z,2.20
2022-12-12T22:33:44.905Z,3.10
2022-12-12T22:36:15.962Z,3.97
2022-12-12T22:38:45.550Z,4.93
2022-12-12T22:41:14.689Z,5.87
2022-12-12T22:43:43.936Z,6.80
2022-12-12T22:46:13.218Z,7.90
2022-12-12T22:48:42.793Z,14.47
2022-12-12T22:51:17.771Z,6.13
2022-12-12T22:53:47.207Z,5.53
2022-12-12T22:56:16.848Z,6.00
2022-12-12T22:58:46.519Z,6.00
2022-12-12T23:01:16.714Z,7.70
2022-12-12T23:03:46.166Z,6.90
2022-12-12T23:06:16.281Z,7.60
2022-12-12T23:08:51.197Z,7.00
2022-12-12T23:11:21.703Z,7.10
2022-12-12T23:13:50.928Z,7.87
2022-12-12T23:16:21.143Z,7.73
2022-12-12T23:18:50.668Z,7.83
2022-12-12T23:21:21.290Z,7.63
2022-12-12T23:23:52.331Z,7.10
2022-12-12T23:26:22.545Z,3.90
2022-12-12T23:28:52.175Z,4.43
2022-12-12T23:31:22.715Z,2.57
2022-12-12T23:33:54.239Z,2.93
2022-12-12T23:36:24.011Z,3.70
2022-12-12T23:38:57.824Z,2.50
2022-12-12T23:41:27.681Z,2.40
2022-12-12T23:43:57.062Z,2.70
2022-12-12T23:46:31.268Z,2.83
2022-12-12T23:49:01.481Z,2.23
2022-12-12T23:51:31.964Z,2.30
2022-12-12T23:54:03.711Z,1.97
2022-12-12T23:56:33.002Z,2.70
2022-12-12T23:59:02.386Z,1.93
